createdAt,value
2023-01-08T00:00:58.895Z,59.51
2023-01-08T00:03:25.364Z,58.51
2023-01-08T00:05:51.707Z,58.33
2023-01-08T00:08:17.979Z,59.00
2023-01-08T00:10:44.264Z,59.04
2023-01-08T00:13:10.551Z,58.26
2023-01-08T00:15:36.855Z,59.25
2023-01-08T00:18:05.394Z,58.58
2023-01-08T00:20:32.841Z,58.37
2023-01-08T00:22:59.084Z,58.32
2023-01-08T00:25:25.335Z,58.77
2023-01-08T00:27:51.603Z,58.32
2023-01-08T00:30:17.918Z,58.80
2023-01-08T00:32:44.206Z,58.36
2023-01-08T00:35:10.573Z,58.10
2023-01-08T00:37:36.833Z,58.81
2023-01-08T00:40:03.113Z,57.98
2023-01-08T00:42:29.412Z,57.17
2023-01-08T00:44:55.711Z,57.38
2023-01-08T00:47:21.959Z,57.79
2023-01-08T00:49:48.201Z,58.35
2023-01-08T00:52:14.454Z,57.49
2023-01-08T00:54:40.723Z,56.57
2023-01-08T00:57:06.969Z,57.26
2023-01-08T00:59:33.245Z,56.87
2023-01-08T01:01:59.576Z,55.90
2023-01-08T01:04:25.945Z,55.95
2023-01-08T01:06:52.249Z,56.20
2023-01-08T01:09:18.528Z,56.92
2023-01-08T01:11:44.802Z,56.50
2023-01-08T01:14:11.073Z,56.54
2023-01-08T01:16:37.389Z,55.60
2023-01-08T01:19:03.676Z,55.86
2023-01-08T01:21:29.939Z,56.73
2023-01-08T01:23:56.205Z,56.71
2023-01-08T01:26:22.441Z,56.26
2023-01-08T01:28:48.728Z,56.38
2023-01-08T01:31:15.072Z,56.02
2023-01-08T01:33:41.410Z,55.86
2023-01-08T01:36:07.672Z,55.37
2023-01-08T01:38:33.936Z,54.38
2023-01-08T01:41:00.204Z,55.23
2023-01-08T01:43:26.447Z,55.46
2023-01-08T01:45:52.776Z,54.89
2023-01-08T01:48:19.065Z,55.52
2023-01-08T01:50:45.336Z,55.43
2023-01-08T01:53:11.601Z,56.82
2023-01-08T01:55:37.865Z,54.68
2023-01-08T01:58:04.170Z,55.42
2023-01-08T02:00:30.432Z,55.80
2023-01-08T02:02:56.718Z,55.34
2023-01-08T02:05:22.965Z,54.67
2023-01-08T02:07:49.235Z,55.55
2023-01-08T02:10:15.506Z,55.10
2023-01-08T02:12:41.772Z,54.98
2023-01-08T02:15:08.042Z,55.61
2023-01-08T02:17:34.317Z,55.73
2023-01-08T02:20:00.581Z,56.31
2023-01-08T02:22:26.864Z,56.77
2023-01-08T02:24:53.146Z,55.69
2023-01-08T02:27:19.419Z,56.69
2023-01-08T02:29:45.673Z,57.58
2023-01-08T02:32:11.947Z,57.46
2023-01-08T02:34:38.246Z,58.25
2023-01-08T02:37:04.503Z,58.07
2023-01-08T02:39:30.766Z,58.15
2023-01-08T02:41:57.027Z,58.54
2023-01-08T02:44:23.315Z,59.43
2023-01-08T02:46:49.612Z,59.29
2023-01-08T02:49:15.889Z,59.31
2023-01-08T02:51:42.138Z,59.28
2023-01-08T02:54:08.382Z,59.09
2023-01-08T02:56:34.668Z,59.39
2023-01-08T02:59:00.942Z,59.83
2023-01-08T03:01:27.252Z,59.96
2023-01-08T03:03:53.625Z,60.34
2023-01-08T03:06:19.897Z,59.98
2023-01-08T03:08:46.144Z,59.17
2023-01-08T03:11:12.388Z,58.45
2023-01-08T03:13:38.653Z,59.89
2023-01-08T03:16:04.960Z,59.17
2023-01-08T03:18:31.230Z,60.17
2023-01-08T03:20:57.486Z,61.16
2023-01-08T03:23:23.737Z,60.42
2023-01-08T03:25:50.021Z,59.77
2023-01-08T03:28:16.280Z,60.00
2023-01-08T03:30:42.599Z,60.72
2023-01-08T03:33:08.873Z,60.61
2023-01-08T03:35:35.134Z,60.29
2023-01-08T03:38:01.401Z,61.54
2023-01-08T03:40:27.658Z,62.04
2023-01-08T03:42:53.907Z,61.90
2023-01-08T03:45:20.190Z,61.67
2023-01-08T03:47:46.474Z,62.48
2023-01-08T03:50:12.739Z,62.87
2023-01-08T03:52:39.028Z,62.89
2023-01-08T03:55:05.305Z,63.13
2023-01-08T03:57:31.556Z,63.36
2023-01-08T03:59:57.796Z,63.39
2023-01-08T04:02:24.198Z,64.35
2023-01-08T04:04:50.622Z,64.16
2023-01-08T04:07:16.882Z,64.25
2023-01-08T04:09:43.124Z,63.92
2023-01-08T04:12:09.360Z,64.35
2023-01-08T04:14:35.621Z,64.76
2023-01-08T04:17:01.923Z,63.99
2023-01-08T04:19:28.182Z,64.29
2023-01-08T04:21:54.456Z,64.36
2023-01-08T04:24:20.742Z,64.23
2023-01-08T04:26:47.022Z,65.38
2023-01-08T04:29:13.302Z,65.35
2023-01-08T04:31:39.540Z,64.99
2023-01-08T04:34:05.794Z,65.46
2023-01-08T04:36:32.034Z,64.84
2023-01-08T04:38:58.316Z,65.02
2023-01-08T04:41:24.576Z,65.40
2023-01-08T04:43:50.828Z,65.53
2023-01-08T04:46:17.171Z,65.56
2023-01-08T04:48:43.436Z,66.72
2023-01-08T04:51:09.681Z,65.79
2023-01-08T04:53:35.937Z,66.36
2023-01-08T04:56:02.191Z,66.67
2023-01-08T04:58:28.455Z,66.75
2023-01-08T05:00:54.709Z,66.31
2023-01-08T05:03:21.070Z,66.17
2023-01-08T05:05:49.839Z,66.40
2023-01-08T05:08:16.217Z,66.25
2023-01-08T05:10:42.466Z,66.26
2023-01-08T05:13:08.701Z,66.66
2023-01-08T05:15:34.969Z,66.87
2023-01-08T05:18:01.256Z,66.20
2023-01-08T05:20:27.517Z,66.76
2023-01-08T05:22:53.767Z,66.43
2023-01-08T05:25:20.039Z,65.68
2023-01-08T05:27:46.305Z,65.25
2023-01-08T05:30:12.564Z,65.31
2023-01-08T05:32:38.856Z,65.57
2023-01-08T05:35:05.180Z,66.44
2023-01-08T05:37:31.450Z,66.51
2023-01-08T05:39:57.716Z,67.54
2023-01-08T05:42:23.975Z,67.22
2023-01-08T05:44:50.229Z,67.38
2023-01-08T05:47:16.465Z,67.90
2023-01-08T05:49:42.726Z,67.52
2023-01-08T05:52:08.966Z,66.55
2023-01-08T05:54:35.202Z,66.28
2023-01-08T05:57:01.501Z,66.83
2023-01-08T05:59:27.762Z,67.32
2023-01-08T06:01:54.008Z,67.35
2023-01-08T06:04:20.324Z,67.78
2023-01-08T06:06:46.650Z,67.98
2023-01-08T06:09:12.910Z,68.19
2023-01-08T06:11:39.158Z,67.50
2023-01-08T06:14:05.421Z,68.41
2023-01-08T06:16:31.699Z,68.37
2023-01-08T06:18:57.952Z,68.59
2023-01-08T06:21:24.205Z,68.32
2023-01-08T06:23:50.444Z,67.50
2023-01-08T06:26:16.724Z,67.13
2023-01-08T06:28:43.091Z,67.03
2023-01-08T06:31:09.338Z,67.19
2023-01-08T06:33:35.610Z,66.91
2023-01-08T06:36:01.878Z,66.81
2023-01-08T06:38:28.150Z,66.33
2023-01-08T06:40:54.414Z,66.30
2023-01-08T06:43:22.597Z,65.77
2023-01-08T06:45:49.464Z,66.35
2023-01-08T06:48:15.721Z,66.34
2023-01-08T06:50:41.978Z,66.83
2023-01-08T06:53:08.245Z,66.60
2023-01-08T06:55:34.507Z,67.14
2023-01-08T06:58:00.761Z,66.39
2023-01-08T07:00:27.021Z,66.41
2023-01-08T07:02:53.447Z,66.65
2023-01-08T07:05:19.792Z,66.46
2023-01-08T07:07:46.048Z,66.92
2023-01-08T07:10:12.315Z,66.33
2023-01-08T07:12:38.558Z,66.88
2023-01-08T07:15:04.793Z,66.47
2023-01-08T07:17:31.057Z,67.05
2023-01-08T07:19:57.316Z,66.32
2023-01-08T07:22:23.549Z,67.17
2023-01-08T07:24:49.782Z,66.32
2023-01-08T07:27:16.021Z,66.33
2023-01-08T07:29:42.279Z,67.01
2023-01-08T07:32:08.540Z,66.70
2023-01-08T07:34:34.803Z,67.44
2023-01-08T07:37:01.039Z,67.25
2023-01-08T07:39:27.270Z,67.82
2023-01-08T07:41:53.534Z,67.04
2023-01-08T07:44:19.796Z,66.74
2023-01-08T07:46:46.117Z,67.60
2023-01-08T07:49:12.415Z,67.33
2023-01-08T07:51:38.673Z,67.02
2023-01-08T07:54:04.938Z,66.71
2023-01-08T07:56:31.176Z,66.92
2023-01-08T07:58:57.422Z,66.63
2023-01-08T08:01:23.773Z,67.02
2023-01-08T08:03:50.105Z,67.15
2023-01-08T08:06:16.361Z,67.23
2023-01-08T08:08:42.628Z,67.32
2023-01-08T08:11:08.903Z,67.73
2023-01-08T08:13:35.162Z,68.14
2023-01-08T08:16:01.477Z,66.92
2023-01-08T08:18:27.788Z,66.72
2023-01-08T08:20:54.039Z,67.24
2023-01-08T08:23:20.311Z,66.78
2023-01-08T08:25:46.585Z,67.60
2023-01-08T08:28:12.839Z,67.42
2023-01-08T08:30:41.992Z,67.69
2023-01-08T08:33:08.688Z,67.62
2023-01-08T08:35:34.942Z,66.64
2023-01-08T08:38:01.304Z,67.13
2023-01-08T08:40:27.553Z,66.50
2023-01-08T08:42:53.808Z,67.56
2023-01-08T08:45:20.055Z,67.90
2023-01-08T08:47:46.368Z,67.64
2023-01-08T08:50:12.616Z,67.41
2023-01-08T08:52:38.879Z,67.52
2023-01-08T08:55:05.140Z,67.01
2023-01-08T08:57:31.381Z,67.20
2023-01-08T08:59:59.343Z,66.90
2023-01-08T09:02:26.743Z,66.44
2023-01-08T09:04:53.130Z,66.84
2023-01-08T09:07:19.370Z,67.40
2023-01-08T09:09:45.650Z,67.06
2023-01-08T09:12:11.904Z,67.28
2023-01-08T09:14:38.158Z,67.09
2023-01-08T09:17:04.411Z,67.41
2023-01-08T09:19:30.681Z,67.64
2023-01-08T09:21:57.029Z,67.65
2023-01-08T09:24:23.286Z,68.16
2023-01-08T09:26:49.552Z,68.16
2023-01-08T09:29:15.821Z,67.66
2023-01-08T09:31:42.138Z,67.62
2023-01-08T09:34:08.423Z,67.19
2023-01-08T09:36:34.684Z,67.66
2023-01-08T09:39:00.955Z,67.85
2023-01-08T09:41:27.206Z,69.05
2023-01-08T09:43:53.471Z,68.74
2023-01-08T09:46:19.723Z,68.11
2023-01-08T09:48:45.979Z,68.21
2023-01-08T09:51:12.223Z,68.96
2023-01-08T09:53:38.461Z,69.41
2023-01-08T09:56:10.218Z,68.70
2023-01-08T09:58:36.809Z,68.05
2023-01-08T10:01:03.144Z,68.23
2023-01-08T10:03:29.418Z,68.33
2023-01-08T10:05:55.675Z,68.38
2023-01-08T10:08:21.945Z,68.72
2023-01-08T10:10:48.192Z,67.92
2023-01-08T10:13:14.449Z,68.09
2023-01-08T10:15:40.701Z,68.26
2023-01-08T10:18:06.961Z,67.92
2023-01-08T10:20:33.231Z,68.38
2023-01-08T10:22:59.473Z,68.33
2023-01-08T10:25:25.714Z,68.61
2023-01-08T10:27:51.981Z,67.96
2023-01-08T10:30:18.254Z,67.67
2023-01-08T10:32:44.520Z,68.62
2023-01-08T10:35:10.781Z,68.89
2023-01-08T10:37:37.041Z,69.09
2023-01-08T10:40:03.331Z,67.58
2023-01-08T10:42:29.594Z,67.21
2023-01-08T10:44:55.837Z,67.46
2023-01-08T10:47:22.074Z,67.37
2023-01-08T10:49:48.321Z,67.33
2023-01-08T10:52:14.557Z,66.78
2023-01-08T10:54:40.813Z,67.57
2023-01-08T10:57:07.051Z,67.43
2023-01-08T10:59:33.299Z,67.63
2023-01-08T11:01:59.641Z,66.77
2023-01-08T11:04:25.999Z,66.68
2023-01-08T11:06:52.267Z,67.43
2023-01-08T11:09:18.513Z,67.57
2023-01-08T11:11:44.763Z,68.89
2023-01-08T11:14:11.029Z,68.87
2023-01-08T11:16:37.309Z,69.82
2023-01-08T11:19:03.575Z,69.35
2023-01-08T11:21:29.835Z,69.47
2023-01-08T11:23:56.088Z,69.78
2023-01-08T11:26:22.346Z,69.16
2023-01-08T11:28:48.707Z,68.90
2023-01-08T11:31:15.004Z,68.92
2023-01-08T11:33:41.261Z,68.85
2023-01-08T11:36:07.528Z,68.91
2023-01-08T11:38:33.803Z,68.39
2023-01-08T11:41:00.078Z,68.13
2023-01-08T11:43:26.332Z,67.46
2023-01-08T11:45:52.627Z,67.70
2023-01-08T11:48:18.945Z,67.52
2023-01-08T11:50:45.213Z,67.36
2023-01-08T11:53:11.463Z,67.75
2023-01-08T11:55:37.727Z,68.07
2023-01-08T11:58:03.965Z,68.00
2023-01-08T12:00:30.225Z,68.03
2023-01-08T12:02:56.532Z,67.99
2023-01-08T12:05:22.808Z,68.61
2023-01-08T12:07:49.060Z,68.26
2023-01-08T12:10:15.335Z,67.83
2023-01-08T12:12:41.595Z,67.81
2023-01-08T12:15:07.850Z,68.29
2023-01-08T12:17:34.141Z,67.67
2023-01-08T12:20:00.407Z,67.88
2023-01-08T12:22:26.641Z,67.74
2023-01-08T12:24:52.901Z,67.77
2023-01-08T12:27:19.485Z,67.93
2023-01-08T12:29:45.745Z,67.51
2023-01-08T12:32:12.034Z,68.28
2023-01-08T12:34:38.300Z,67.93
2023-01-08T12:37:04.568Z,67.85
2023-01-08T12:39:30.835Z,68.37
2023-01-08T12:41:57.076Z,68.61
2023-01-08T12:44:23.330Z,68.01
2023-01-08T12:46:49.689Z,68.24
2023-01-08T12:49:15.995Z,68.80
2023-01-08T12:51:42.244Z,67.75
2023-01-08T12:54:08.487Z,67.89
2023-01-08T12:56:34.740Z,67.44
2023-01-08T12:59:00.990Z,68.24
2023-01-08T13:01:27.387Z,67.84
2023-01-08T13:03:53.728Z,68.14
2023-01-08T13:06:20.000Z,68.09
2023-01-08T13:08:46.252Z,67.80
2023-01-08T13:11:12.494Z,67.75
2023-01-08T13:13:38.755Z,67.69
2023-01-08T13:16:05.003Z,68.03
2023-01-08T13:18:31.352Z,68.50
2023-01-08T13:20:57.595Z,67.80
2023-01-08T13:23:23.844Z,67.53
2023-01-08T13:25:50.110Z,67.43
2023-01-08T13:28:16.369Z,67.92
2023-01-08T13:30:42.631Z,68.03
2023-01-08T13:33:08.887Z,68.19
2023-01-08T13:35:35.149Z,68.32
2023-01-08T13:38:01.393Z,67.63
2023-01-08T13:40:27.639Z,68.00
2023-01-08T13:42:53.874Z,67.87
2023-01-08T13:45:20.124Z,68.08
2023-01-08T13:47:46.417Z,67.89
2023-01-08T13:50:12.760Z,67.75
2023-01-08T13:52:39.005Z,67.98
2023-01-08T13:55:05.240Z,68.55
2023-01-08T13:57:31.486Z,67.75
2023-01-08T13:59:57.753Z,67.69
2023-01-08T14:02:24.104Z,67.91
2023-01-08T14:04:50.475Z,67.33
2023-01-08T14:07:16.736Z,67.81
2023-01-08T14:09:42.985Z,67.38
2023-01-08T14:12:09.243Z,67.83
2023-01-08T14:14:35.511Z,67.44
2023-01-08T14:17:01.768Z,67.83
2023-01-08T14:19:28.037Z,68.09
2023-01-08T14:21:54.310Z,67.78
2023-01-08T14:24:20.590Z,67.95
2023-01-08T14:26:46.858Z,68.47
2023-01-08T14:29:13.111Z,68.48
2023-01-08T14:31:39.383Z,68.33
2023-01-08T14:34:05.685Z,68.95
2023-01-08T14:36:31.959Z,68.83
2023-01-08T14:38:58.203Z,68.35
2023-01-08T14:41:24.460Z,68.21
2023-01-08T14:43:50.700Z,68.32
2023-01-08T14:46:16.949Z,68.70
2023-01-08T14:48:43.197Z,68.87
2023-01-08T14:51:09.548Z,68.86
2023-01-08T14:53:35.808Z,68.55
2023-01-08T14:56:02.093Z,68.96
2023-01-08T14:58:28.339Z,68.85
2023-01-08T15:00:54.632Z,69.37
2023-01-08T15:03:20.909Z,69.41
2023-01-08T15:05:47.170Z,69.53
2023-01-08T15:08:13.437Z,69.49
2023-01-08T15:10:39.697Z,68.68
2023-01-08T15:13:05.954Z,69.45
2023-01-08T15:15:32.224Z,69.06
2023-01-08T15:17:58.465Z,69.45
2023-01-08T15:20:24.718Z,69.32
2023-01-08T15:22:50.982Z,69.08
2023-01-08T15:25:17.239Z,69.49
2023-01-08T15:27:43.497Z,69.23
2023-01-08T15:30:09.732Z,68.86
2023-01-08T15:32:35.969Z,69.04
2023-01-08T15:35:02.218Z,68.92
2023-01-08T15:37:28.474Z,69.25
2023-01-08T15:39:54.740Z,69.07
2023-01-08T15:42:21.020Z,69.03
2023-01-08T15:44:47.279Z,69.05
2023-01-08T15:47:13.543Z,69.26
2023-01-08T15:49:39.800Z,69.16
2023-01-08T15:52:06.045Z,69.31
2023-01-08T15:54:32.303Z,68.83
2023-01-08T15:56:58.572Z,69.14
2023-01-08T15:59:24.840Z,68.87
2023-01-08T16:01:51.199Z,68.84
2023-01-08T16:04:17.505Z,69.04
2023-01-08T16:06:43.749Z,68.57
2023-01-08T16:09:09.990Z,68.60
2023-01-08T16:11:36.248Z,68.68
2023-01-08T16:14:02.527Z,68.54
2023-01-08T16:16:28.820Z,68.27
2023-01-08T16:18:55.105Z,68.46
2023-01-08T16:21:21.360Z,69.09
2023-01-08T16:23:47.638Z,68.91
2023-01-08T16:26:13.894Z,69.07
2023-01-08T16:28:40.149Z,69.22
2023-01-08T16:31:06.428Z,69.39
2023-01-08T16:33:32.698Z,69.86
2023-01-08T16:35:58.937Z,69.62
2023-01-08T16:38:25.181Z,69.55
2023-01-08T16:40:51.437Z,70.29
2023-01-08T16:43:17.694Z,69.72
2023-01-08T16:45:44.021Z,69.70
2023-01-08T16:48:10.293Z,69.55
2023-01-08T16:50:36.533Z,69.17
2023-01-08T16:53:02.781Z,69.29
2023-01-08T16:55:29.016Z,69.50
2023-01-08T16:57:55.601Z,68.65
2023-01-08T17:00:21.907Z,68.23
2023-01-08T17:02:48.316Z,69.06
2023-01-08T17:05:14.567Z,69.30
2023-01-08T17:07:40.830Z,70.05
2023-01-08T17:10:07.081Z,69.58
2023-01-08T17:12:33.342Z,69.85
2023-01-08T17:14:59.616Z,70.53
2023-01-08T17:17:25.863Z,70.15
2023-01-08T17:19:52.116Z,69.95
2023-01-08T17:22:18.366Z,69.50
2023-01-08T17:24:44.603Z,69.89
2023-01-08T17:27:10.856Z,69.47
2023-01-08T17:29:37.101Z,69.34
2023-01-08T17:32:03.352Z,68.68
2023-01-08T17:34:29.643Z,69.71
2023-01-08T17:36:55.890Z,69.57
2023-01-08T17:39:22.133Z,70.11
2023-01-08T17:41:48.378Z,69.27
2023-01-08T17:44:14.642Z,69.09
2023-01-08T17:46:40.895Z,69.06
2023-01-08T17:49:07.167Z,68.76
2023-01-08T17:51:33.485Z,68.82
2023-01-08T17:53:59.826Z,68.66
2023-01-08T17:56:26.081Z,69.13
2023-01-08T17:58:52.742Z,68.73
2023-01-08T18:01:19.118Z,69.03
2023-01-08T18:03:45.509Z,69.23
2023-01-08T18:06:11.770Z,69.49
2023-01-08T18:08:38.008Z,69.04
2023-01-08T18:11:04.241Z,69.31
2023-01-08T18:13:30.480Z,69.11
2023-01-08T18:15:56.733Z,69.06
2023-01-08T18:18:22.981Z,68.94
2023-01-08T18:20:49.234Z,69.55
2023-01-08T18:23:15.495Z,69.85
2023-01-08T18:25:41.781Z,70.50
2023-01-08T18:28:08.030Z,70.64
2023-01-08T18:30:34.284Z,70.42
2023-01-08T18:33:00.543Z,70.35
2023-01-08T18:35:26.808Z,70.23
2023-01-08T18:37:53.079Z,70.91
2023-01-08T18:40:19.348Z,70.93
2023-01-08T18:42:45.597Z,70.76
2023-01-08T18:45:11.855Z,71.45
2023-01-08T18:47:38.117Z,71.17
2023-01-08T18:50:04.377Z,71.30
2023-01-08T18:52:30.752Z,70.79
2023-01-08T18:54:57.009Z,70.18
2023-01-08T18:57:23.283Z,70.00
2023-01-08T18:59:49.562Z,69.64
2023-01-08T19:02:16.056Z,69.55
2023-01-08T19:04:42.326Z,69.07
2023-01-08T19:07:08.585Z,69.50
2023-01-08T19:09:34.848Z,69.44
2023-01-08T19:12:01.109Z,70.21
2023-01-08T19:14:27.348Z,70.00
2023-01-08T19:16:53.612Z,70.08
2023-01-08T19:19:19.890Z,70.09
2023-01-08T19:21:46.153Z,70.18
2023-01-08T19:24:12.410Z,70.88
2023-01-08T19:26:38.678Z,70.89
2023-01-08T19:29:05.105Z,70.86
2023-01-08T19:31:31.510Z,70.75
2023-01-08T19:33:57.798Z,70.79
2023-01-08T19:36:24.064Z,70.58
2023-01-08T19:38:50.312Z,71.14
2023-01-08T19:41:16.563Z,70.48
2023-01-08T19:43:42.954Z,70.19
2023-01-08T19:46:09.429Z,70.03
2023-01-08T19:48:35.732Z,70.56
2023-01-08T19:51:02.042Z,70.56
2023-01-08T19:53:28.348Z,70.71
2023-01-08T19:55:54.645Z,70.30
2023-01-08T19:58:20.899Z,70.31
2023-01-08T20:00:47.186Z,70.54
2023-01-08T20:03:13.486Z,70.69
2023-01-08T20:05:39.729Z,70.50
2023-01-08T20:08:05.976Z,70.40
2023-01-08T20:10:32.236Z,71.12
2023-01-08T20:12:58.476Z,70.93
2023-01-08T20:15:24.732Z,70.68
2023-01-08T20:17:51.011Z,70.06
2023-01-08T20:20:17.313Z,70.44
2023-01-08T20:22:43.555Z,70.03
2023-01-08T20:25:09.832Z,69.18
2023-01-08T20:27:36.075Z,68.77
2023-01-08T20:30:02.326Z,69.22
2023-01-08T20:32:28.584Z,69.36
2023-01-08T20:34:54.828Z,69.22
2023-01-08T20:37:22.113Z,68.74
2023-01-08T20:39:48.366Z,69.24
2023-01-08T20:42:17.646Z,69.08
2023-01-08T20:44:53.663Z,69.05
2023-01-08T20:47:19.926Z,69.23
2023-01-08T20:49:46.189Z,69.11
2023-01-08T20:52:12.427Z,69.14
2023-01-08T20:54:38.670Z,68.64
2023-01-08T20:57:04.925Z,69.09
2023-01-08T20:59:31.185Z,69.03
2023-01-08T21:01:57.574Z,69.39
2023-01-08T21:04:23.907Z,70.13
2023-01-08T21:06:50.205Z,70.30
2023-01-08T21:09:16.499Z,72.08
2023-01-08T21:11:42.764Z,73.12
2023-01-08T21:14:09.016Z,72.78
2023-01-08T21:16:35.317Z,74.08
2023-01-08T21:19:01.595Z,74.93
2023-01-08T21:21:27.933Z,74.45
2023-01-08T21:23:54.163Z,74.89
2023-01-08T21:26:20.417Z,74.97
2023-01-08T21:28:46.913Z,75.24
2023-01-08T21:31:13.217Z,75.10
2023-01-08T21:33:39.483Z,75.72
2023-01-08T21:36:05.761Z,74.92
2023-01-08T21:38:32.009Z,74.30
2023-01-08T21:40:58.257Z,75.21
2023-01-08T21:43:24.505Z,74.61
2023-01-08T21:45:50.801Z,75.04
2023-01-08T21:48:17.089Z,75.76
2023-01-08T21:50:43.338Z,75.50
2023-01-08T21:53:09.594Z,74.96
2023-01-08T21:55:35.849Z,75.36
2023-01-08T21:58:02.124Z,76.34
2023-01-08T22:00:28.361Z,75.75
2023-01-08T22:02:54.719Z,74.85
2023-01-08T22:05:20.995Z,75.33
2023-01-08T22:07:47.248Z,74.67
2023-01-08T22:10:13.517Z,74.53
2023-01-08T22:12:39.784Z,74.78
2023-01-08T22:15:06.064Z,74.26
2023-01-08T22:17:32.418Z,73.41
2023-01-08T22:19:58.669Z,74.09
2023-01-08T22:22:24.932Z,73.38
2023-01-08T22:24:51.190Z,74.11
2023-01-08T22:27:17.429Z,73.59
2023-01-08T22:29:43.705Z,73.71
2023-01-08T22:32:09.965Z,74.19
2023-01-08T22:34:36.205Z,74.43
2023-01-08T22:37:02.478Z,74.02
2023-01-08T22:39:28.727Z,74.01
2023-01-08T22:41:54.994Z,74.16
2023-01-08T22:44:21.249Z,74.07
2023-01-08T22:46:47.564Z,74.03
2023-01-08T22:49:13.816Z,74.12
2023-01-08T22:51:40.091Z,73.65
2023-01-08T22:54:06.374Z,73.35
2023-01-08T22:56:32.637Z,73.66
2023-01-08T22:58:58.893Z,73.49
2023-01-08T23:01:25.155Z,73.24
2023-01-08T23:03:51.491Z,73.35
2023-01-08T23:06:17.900Z,73.30
2023-01-08T23:08:44.154Z,73.28
2023-01-08T23:11:10.578Z,72.61
2023-01-08T23:13:36.821Z,72.31
2023-01-08T23:16:03.099Z,72.48
2023-01-08T23:18:29.414Z,72.58
2023-01-08T23:20:55.674Z,72.64
2023-01-08T23:23:21.929Z,72.03
2023-01-08T23:25:48.187Z,72.13
2023-01-08T23:28:14.472Z,72.70
2023-01-08T23:30:40.745Z,71.93
2023-01-08T23:33:07.011Z,72.17
2023-01-08T23:35:33.276Z,72.10
2023-01-08T23:37:59.547Z,72.20
2023-01-08T23:40:25.812Z,71.63
2023-01-08T23:42:52.083Z,71.43
2023-01-08T23:45:18.333Z,72.17
2023-01-08T23:47:44.590Z,71.73
2023-01-08T23:50:10.858Z,71.18
2023-01-08T23:52:37.112Z,71.62
2023-01-08T23:55:03.392Z,71.31
2023-01-08T23:57:29.636Z,71.19
2023-01-08T23:59:55.900Z,71.02
